sensor_id;sensor_type;location;lat;lon;timestamp;P1;durP1;ratioP1;P2;durP2;ratioP2
3207;SDS011;1616;52.394;9.756;2023-08-21T00:02:00;6.60;;;2.10;;
3207;SDS011;1616;52.394;9.756;2023-08-21T00:04:26;2.13;;;1.93;;
3207;SDS011;1616;52.394;9.756;2023-08-21T00:06:51;3.40;;;2.47;;
3207;SDS011;1616;52.394;9.756;2023-08-21T00:09:17;2.20;;;2.00;;
3207;SDS011;1616;52.394;9.756;2023-08-21T00:11:43;4.63;;;2.30;;
3207;SDS011;1616;52.394;9.756;2023-08-21T00:14:08;2.40;;;2.20;;
3207;SDS011;1616;52.394;9.756;2023-08-21T00:16:34;4.27;;;2.60;;
3207;SDS011;1616;52.394;9.756;2023-08-21T00:18:59;2.67;;;2.47;;
3207;SDS011;1616;52.394;9.756;2023-08-21T00:21:25;6.00;;;2.30;;
3207;SDS011;1616;52.394;9.756;2023-08-21T00:23:51;3.07;;;2.17;;
3207;SDS011;1616;52.394;9.756;2023-08-21T00:26:17;3.07;;;1.97;;
3207;SDS011;1616;52.394;9.756;2023-08-21T00:28:43;5.80;;;2.40;;
3207;SDS011;1616;52.394;9.756;2023-08-21T00:31:08;2.80;;;2.60;;
3207;SDS011;1616;52.394;9.756;2023-08-21T00:33:34;3.67;;;2.43;;
3207;SDS011;1616;52.394;9.756;2023-08-21T00:36:00;2.60;;;2.40;;
3207;SDS011;1616;52.394;9.756;2023-08-21T00:38:25;2.83;;;2.50;;
3207;SDS011;1616;52.394;9.756;2023-08-21T00:40:51;3.10;;;2.30;;
3207;SDS011;1616;52.394;9.756;2023-08-21T00:43:17;4.43;;;2.20;;
3207;SDS011;1616;52.394;9.756;2023-08-21T00:45:44;11.93;;;2.77;;
3207;SDS011;1616;52.394;9.756;2023-08-21T00:48:11;5.37;;;2.27;;
3207;SDS011;1616;52.394;9.756;2023-08-21T00:50:38;7.83;;;3.77;;
3207;SDS011;1616;52.394;9.756;2023-08-21T00:53:04;2.90;;;2.60;;
3207;SDS011;1616;52.394;9.756;2023-08-21T00:55:32;2.57;;;2.37;;
3207;SDS011;1616;52.394;9.756;2023-08-21T00:57:59;6.67;;;3.30;;
3207;SDS011;1616;52.394;9.756;2023-08-21T01:00:25;10.73;;;3.07;;
3207;SDS011;1616;52.394;9.756;2023-08-21T01:02:52;2.47;;;2.27;;
3207;SDS011;1616;52.394;9.756;2023-08-21T01:05:18;5.23;;;3.37;;
3207;SDS011;1616;52.394;9.756;2023-08-21T01:07:47;2.30;;;2.10;;
3207;SDS011;1616;52.394;9.756;2023-08-21T01:15:50;7.40;;;2.73;;
3207;SDS011;1616;52.394;9.756;2023-08-21T01:18:17;4.63;;;2.33;;
3207;SDS011;1616;52.394;9.756;2023-08-21T01:20:44;4.57;;;2.90;;
3207;SDS011;1616;52.394;9.756;2023-08-21T01:23:25;6.13;;;2.73;;
3207;SDS011;1616;52.394;9.756;2023-08-21T01:26:00;3.00;;;2.67;;
3207;SDS011;1616;52.394;9.756;2023-08-21T01:28:26;3.97;;;3.03;;
3207;SDS011;1616;52.394;9.756;2023-08-21T01:30:55;4.60;;;2.93;;
3207;SDS011;1616;52.394;9.756;2023-08-21T01:33:35;4.17;;;3.30;;
3207;SDS011;1616;52.394;9.756;2023-08-21T01:36:04;3.73;;;3.10;;
3207;SDS011;1616;52.394;9.756;2023-08-21T01:38:32;3.23;;;2.93;;
3207;SDS011;1616;52.394;9.756;2023-08-21T01:40:58;4.93;;;3.13;;
3207;SDS011;1616;52.394;9.756;2023-08-21T01:43:24;3.03;;;2.73;;
3207;SDS011;1616;52.394;9.756;2023-08-21T01:45:49;6.47;;;2.70;;
3207;SDS011;1616;52.394;9.756;2023-08-21T01:48:15;5.23;;;3.40;;
3207;SDS011;1616;52.394;9.756;2023-08-21T01:50:41;5.60;;;2.80;;
3207;SDS011;1616;52.394;9.756;2023-08-21T01:53:08;10.00;;;3.00;;
3207;SDS011;1616;52.394;9.756;2023-08-21T01:55:33;3.17;;;2.53;;
3207;SDS011;1616;52.394;9.756;2023-08-21T01:57:59;4.33;;;3.23;;
3207;SDS011;1616;52.394;9.756;2023-08-21T02:00:24;4.60;;;2.67;;
3207;SDS011;1616;52.394;9.756;2023-08-21T02:02:50;4.70;;;2.83;;
3207;SDS011;1616;52.394;9.756;2023-08-21T02:05:15;2.77;;;2.57;;
3207;SDS011;1616;52.394;9.756;2023-08-21T02:07:41;7.17;;;2.67;;
3207;SDS011;1616;52.394;9.756;2023-08-21T02:10:07;5.20;;;4.20;;
3207;SDS011;1616;52.394;9.756;2023-08-21T02:12:33;9.37;;;2.97;;
3207;SDS011;1616;52.394;9.756;2023-08-21T02:14:59;8.33;;;3.93;;
3207;SDS011;1616;52.394;9.756;2023-08-21T02:17:28;3.13;;;2.93;;
3207;SDS011;1616;52.394;9.756;2023-08-21T02:19:54;3.53;;;3.00;;
3207;SDS011;1616;52.394;9.756;2023-08-21T02:22:20;5.30;;;3.63;;
3207;SDS011;1616;52.394;9.756;2023-08-21T02:24:46;3.00;;;2.80;;
3207;SDS011;1616;52.394;9.756;2023-08-21T02:27:12;11.20;;;3.50;;
3207;SDS011;1616;52.394;9.756;2023-08-21T02:29:38;4.23;;;3.00;;
3207;SDS011;1616;52.394;9.756;2023-08-21T02:32:04;3.40;;;3.10;;
3207;SDS011;1616;52.394;9.756;2023-08-21T02:34:30;6.67;;;3.20;;
3207;SDS011;1616;52.394;9.756;2023-08-21T02:36:56;3.77;;;2.73;;
3207;SDS011;1616;52.394;9.756;2023-08-21T02:39:22;7.40;;;3.70;;
3207;SDS011;1616;52.394;9.756;2023-08-21T02:41:47;4.90;;;3.47;;
3207;SDS011;1616;52.394;9.756;2023-08-21T02:44:13;3.30;;;2.83;;
3207;SDS011;1616;52.394;9.756;2023-08-21T02:46:39;4.57;;;3.30;;
3207;SDS011;1616;52.394;9.756;2023-08-21T02:49:05;2.43;;;2.33;;
3207;SDS011;1616;52.394;9.756;2023-08-21T02:51:30;2.80;;;2.60;;
3207;SDS011;1616;52.394;9.756;2023-08-21T02:53:56;2.87;;;2.30;;
3207;SDS011;1616;52.394;9.756;2023-08-21T02:56:21;3.03;;;2.00;;
3207;SDS011;1616;52.394;9.756;2023-08-21T02:58:47;5.90;;;2.30;;
3207;SDS011;1616;52.394;9.756;2023-08-21T03:01:12;2.63;;;1.70;;
3207;SDS011;1616;52.394;9.756;2023-08-21T03:03:38;3.60;;;2.17;;
3207;SDS011;1616;52.394;9.756;2023-08-21T03:06:04;2.80;;;2.00;;
3207;SDS011;1616;52.394;9.756;2023-08-21T03:08:30;3.20;;;2.83;;
3207;SDS011;1616;52.394;9.756;2023-08-21T03:10:56;5.90;;;1.70;;
3207;SDS011;1616;52.394;9.756;2023-08-21T03:13:22;2.90;;;2.07;;
3207;SDS011;1616;52.394;9.756;2023-08-21T03:15:47;5.93;;;2.60;;
3207;SDS011;1616;52.394;9.756;2023-08-21T03:18:13;2.70;;;2.03;;
3207;SDS011;1616;52.394;9.756;2023-08-21T03:20:43;3.13;;;2.40;;
3207;SDS011;1616;52.394;9.756;2023-08-21T03:23:12;1.87;;;1.77;;
3207;SDS011;1616;52.394;9.756;2023-08-21T03:25:38;5.27;;;1.93;;
3207;SDS011;1616;52.394;9.756;2023-08-21T03:28:04;4.63;;;2.13;;
3207;SDS011;1616;52.394;9.756;2023-08-21T03:30:30;5.37;;;1.83;;
3207;SDS011;1616;52.394;9.756;2023-08-21T03:32:56;2.20;;;1.97;;
3207;SDS011;1616;52.394;9.756;2023-08-21T03:35:21;2.50;;;1.73;;
3207;SDS011;1616;52.394;9.756;2023-08-21T03:37:47;6.30;;;1.80;;
3207;SDS011;1616;52.394;9.756;2023-08-21T03:40:12;26.43;;;4.20;;
3207;SDS011;1616;52.394;9.756;2023-08-21T03:42:38;2.97;;;2.77;;
3207;SDS011;1616;52.394;9.756;2023-08-21T03:45:04;3.03;;;2.23;;
3207;SDS011;1616;52.394;9.756;2023-08-21T03:47:30;3.73;;;2.00;;
3207;SDS011;1616;52.394;9.756;2023-08-21T03:49:56;6.23;;;2.60;;
3207;SDS011;1616;52.394;9.756;2023-08-21T03:52:22;2.53;;;2.07;;
3207;SDS011;1616;52.394;9.756;2023-08-21T03:54:47;4.53;;;2.60;;
3207;SDS011;1616;52.394;9.756;2023-08-21T03:57:13;2.57;;;2.37;;
3207;SDS011;1616;52.394;9.756;2023-08-21T03:59:39;9.50;;;2.47;;
3207;SDS011;1616;52.394;9.756;2023-08-21T04:02:04;2.50;;;2.30;;
3207;SDS011;1616;52.394;9.756;2023-08-21T04:04:30;2.90;;;2.00;;
3207;SDS011;1616;52.394;9.756;2023-08-21T04:06:56;3.00;;;2.03;;
3207;SDS011;1616;52.394;9.756;2023-08-21T04:09:21;5.87;;;2.10;;
3207;SDS011;1616;52.394;9.756;2023-08-21T04:11:47;2.20;;;2.00;;
3207;SDS011;1616;52.394;9.756;2023-08-21T04:14:13;5.60;;;2.40;;
3207;SDS011;1616;52.394;9.756;2023-08-21T04:16:39;4.03;;;2.17;;
3207;SDS011;1616;52.394;9.756;2023-08-21T04:19:05;5.67;;;2.33;;
3207;SDS011;1616;52.394;9.756;2023-08-21T04:21:31;5.83;;;2.43;;
3207;SDS011;1616;52.394;9.756;2023-08-21T04:23:57;3.90;;;2.30;;
3207;SDS011;1616;52.394;9.756;2023-08-21T04:26:23;5.83;;;2.23;;
3207;SDS011;1616;52.394;9.756;2023-08-21T04:28:50;4.90;;;1.90;;
3207;SDS011;1616;52.394;9.756;2023-08-21T04:31:16;2.40;;;2.20;;
3207;SDS011;1616;52.394;9.756;2023-08-21T04:33:41;2.20;;;2.00;;
3207;SDS011;1616;52.394;9.756;2023-08-21T04:36:07;4.60;;;2.60;;
3207;SDS011;1616;52.394;9.756;2023-08-21T04:38:39;6.23;;;2.13;;
3207;SDS011;1616;52.394;9.756;2023-08-21T04:41:08;14.27;;;2.93;;
3207;SDS011;1616;52.394;9.756;2023-08-21T04:43:35;5.73;;;1.80;;
3207;SDS011;1616;52.394;9.756;2023-08-21T04:46:02;2.53;;;2.27;;
3207;SDS011;1616;52.394;9.756;2023-08-21T04:48:29;3.40;;;2.27;;
3207;SDS011;1616;52.394;9.756;2023-08-21T04:50:55;3.47;;;1.93;;
3207;SDS011;1616;52.394;9.756;2023-08-21T04:53:20;2.20;;;2.00;;
3207;SDS011;1616;52.394;9.756;2023-08-21T04:55:46;2.60;;;2.40;;
3207;SDS011;1616;52.394;9.756;2023-08-21T04:58:13;3.13;;;1.90;;
3207;SDS011;1616;52.394;9.756;2023-08-21T05:00:39;2.10;;;1.90;;
3207;SDS011;1616;52.394;9.756;2023-08-21T05:03:09;3.90;;;2.90;;
3207;SDS011;1616;52.394;9.756;2023-08-21T05:05:35;2.03;;;1.87;;
3207;SDS011;1616;52.394;9.756;2023-08-21T05:08:01;6.13;;;2.23;;
3207;SDS011;1616;52.394;9.756;2023-08-21T05:10:27;6.60;;;1.97;;
3207;SDS011;1616;52.394;9.756;2023-08-21T05:12:53;8.63;;;2.13;;
3207;SDS011;1616;52.394;9.756;2023-08-21T05:15:18;2.43;;;1.90;;
3207;SDS011;1616;52.394;9.756;2023-08-21T05:17:44;12.00;;;2.80;;
3207;SDS011;1616;52.394;9.756;2023-08-21T05:20:10;6.20;;;2.67;;
3207;SDS011;1616;52.394;9.756;2023-08-21T05:22:39;5.30;;;1.90;;
3207;SDS011;1616;52.394;9.756;2023-08-21T05:25:04;6.93;;;3.57;;
3207;SDS011;1616;52.394;9.756;2023-08-21T05:27:31;4.30;;;3.40;;
3207;SDS011;1616;52.394;9.756;2023-08-21T05:29:56;4.23;;;2.90;;
3207;SDS011;1616;52.394;9.756;2023-08-21T05:32:22;4.93;;;2.43;;
3207;SDS011;1616;52.394;9.756;2023-08-21T05:34:47;4.50;;;2.47;;
3207;SDS011;1616;52.394;9.756;2023-08-21T05:37:13;2.70;;;2.10;;
3207;SDS011;1616;52.394;9.756;2023-08-21T05:39:40;19.73;;;2.37;;
3207;SDS011;1616;52.394;9.756;2023-08-21T05:42:05;8.23;;;2.83;;
3207;SDS011;1616;52.394;9.756;2023-08-21T05:44:31;6.23;;;2.30;;
3207;SDS011;1616;52.394;9.756;2023-08-21T05:46:57;9.93;;;3.10;;
3207;SDS011;1616;52.394;9.756;2023-08-21T05:49:23;11.23;;;2.87;;
3207;SDS011;1616;52.394;9.756;2023-08-21T05:51:48;2.10;;;1.90;;
3207;SDS011;1616;52.394;9.756;2023-08-21T05:54:14;2.47;;;1.90;;
3207;SDS011;1616;52.394;9.756;2023-08-21T05:56:40;3.80;;;2.57;;
3207;SDS011;1616;52.394;9.756;2023-08-21T05:59:06;6.00;;;2.17;;
3207;SDS011;1616;52.394;9.756;2023-08-21T06:01:35;7.20;;;3.07;;
3207;SDS011;1616;52.394;9.756;2023-08-21T06:04:01;4.47;;;2.33;;
3207;SDS011;1616;52.394;9.756;2023-08-21T06:06:27;2.70;;;2.23;;
3207;SDS011;1616;52.394;9.756;2023-08-21T06:08:53;6.97;;;2.20;;
3207;SDS011;1616;52.394;9.756;2023-08-21T06:11:18;2.90;;;1.73;;
3207;SDS011;1616;52.394;9.756;2023-08-21T06:13:44;2.83;;;1.93;;
3207;SDS011;1616;52.394;9.756;2023-08-21T06:16:10;4.83;;;1.63;;
3207;SDS011;1616;52.394;9.756;2023-08-21T06:18:35;3.50;;;1.90;;
3207;SDS011;1616;52.394;9.756;2023-08-21T06:21:01;3.30;;;1.50;;
3207;SDS011;1616;52.394;9.756;2023-08-21T06:23:26;3.20;;;1.50;;
3207;SDS011;1616;52.394;9.756;2023-08-21T06:25:52;2.80;;;1.47;;
3207;SDS011;1616;52.394;9.756;2023-08-21T06:28:17;2.63;;;1.87;;
3207;SDS011;1616;52.394;9.756;2023-08-21T06:30:43;3.20;;;1.63;;
3207;SDS011;1616;52.394;9.756;2023-08-21T06:33:09;2.27;;;2.00;;
3207;SDS011;1616;52.394;9.756;2023-08-21T06:35:38;2.87;;;2.10;;
3207;SDS011;1616;52.394;9.756;2023-08-21T06:38:04;3.57;;;1.60;;
3207;SDS011;1616;52.394;9.756;2023-08-21T06:40:30;2.23;;;1.50;;
3207;SDS011;1616;52.394;9.756;2023-08-21T06:42:55;4.70;;;1.87;;
3207;SDS011;1616;52.394;9.756;2023-08-21T06:45:21;5.73;;;1.80;;
3207;SDS011;1616;52.394;9.756;2023-08-21T06:47:47;4.47;;;1.50;;
3207;SDS011;1616;52.394;9.756;2023-08-21T06:50:12;1.60;;;1.50;;
3207;SDS011;1616;52.394;9.756;2023-08-21T06:52:39;1.90;;;1.70;;
3207;SDS011;1616;52.394;9.756;2023-08-21T06:55:05;3.40;;;1.87;;
3207;SDS011;1616;52.394;9.756;2023-08-21T06:57:31;6.23;;;2.10;;
3207;SDS011;1616;52.394;9.756;2023-08-21T06:59:56;3.20;;;1.67;;
3207;SDS011;1616;52.394;9.756;2023-08-21T07:02:22;2.53;;;1.80;;
3207;SDS011;1616;52.394;9.756;2023-08-21T07:04:47;4.40;;;2.30;;
3207;SDS011;1616;52.394;9.756;2023-08-21T07:07:13;3.83;;;2.27;;
3207;SDS011;1616;52.394;9.756;2023-08-21T07:09:39;3.20;;;2.00;;
3207;SDS011;1616;52.394;9.756;2023-08-21T07:12:04;4.87;;;2.23;;
3207;SDS011;1616;52.394;9.756;2023-08-21T07:14:31;5.77;;;2.50;;
3207;SDS011;1616;52.394;9.756;2023-08-21T07:16:56;4.90;;;2.10;;
3207;SDS011;1616;52.394;9.756;2023-08-21T07:19:22;4.33;;;2.20;;
3207;SDS011;1616;52.394;9.756;2023-08-21T07:21:48;4.53;;;1.50;;
3207;SDS011;1616;52.394;9.756;2023-08-21T07:24:14;4.73;;;1.73;;
3207;SDS011;1616;52.394;9.756;2023-08-21T07:26:39;2.80;;;1.67;;
3207;SDS011;1616;52.394;9.756;2023-08-21T07:29:05;2.47;;;1.40;;
3207;SDS011;1616;52.394;9.756;2023-08-21T07:31:30;3.43;;;1.70;;
3207;SDS011;1616;52.394;9.756;2023-08-21T07:33:56;2.73;;;1.30;;
3207;SDS011;1616;52.394;9.756;2023-08-21T07:36:22;3.90;;;1.47;;
3207;SDS011;1616;52.394;9.756;2023-08-21T07:38:48;6.63;;;1.40;;
3207;SDS011;1616;52.394;9.756;2023-08-21T07:41:15;2.60;;;1.40;;
3207;SDS011;1616;52.394;9.756;2023-08-21T07:43:41;2.73;;;1.37;;
3207;SDS011;1616;52.394;9.756;2023-08-21T07:46:09;2.70;;;1.60;;
3207;SDS011;1616;52.394;9.756;2023-08-21T07:48:38;3.10;;;1.50;;
3207;SDS011;1616;52.394;9.756;2023-08-21T07:51:04;2.30;;;1.47;;
3207;SDS011;1616;52.394;9.756;2023-08-21T07:53:30;3.13;;;1.70;;
3207;SDS011;1616;52.394;9.756;2023-08-21T07:56:00;3.57;;;1.40;;
3207;SDS011;1616;52.394;9.756;2023-08-21T07:58:26;3.20;;;1.30;;
3207;SDS011;1616;52.394;9.756;2023-08-21T08:00:52;2.63;;;1.20;;
3207;SDS011;1616;52.394;9.756;2023-08-21T08:03:19;5.13;;;1.93;;
3207;SDS011;1616;52.394;9.756;2023-08-21T08:05:44;1.77;;;1.27;;
3207;SDS011;1616;52.394;9.756;2023-08-21T08:08:10;2.53;;;1.30;;
3207;SDS011;1616;52.394;9.756;2023-08-21T08:10:39;2.77;;;1.37;;
3207;SDS011;1616;52.394;9.756;2023-08-21T08:13:05;4.23;;;1.60;;
3207;SDS011;1616;52.394;9.756;2023-08-21T08:15:31;2.37;;;1.30;;
3207;SDS011;1616;52.394;9.756;2023-08-21T08:17:59;2.43;;;1.10;;
3207;SDS011;1616;52.394;9.756;2023-08-21T08:20:25;3.37;;;1.33;;
3207;SDS011;1616;52.394;9.756;2023-08-21T08:22:50;3.13;;;1.20;;
3207;SDS011;1616;52.394;9.756;2023-08-21T08:25:16;1.67;;;1.07;;
3207;SDS011;1616;52.394;9.756;2023-08-21T08:27:42;4.20;;;1.20;;
3207;SDS011;1616;52.394;9.756;2023-08-21T08:30:09;2.90;;;1.10;;
3207;SDS011;1616;52.394;9.756;2023-08-21T08:32:35;2.70;;;1.20;;
3207;SDS011;1616;52.394;9.756;2023-08-21T08:35:01;2.23;;;1.40;;
3207;SDS011;1616;52.394;9.756;2023-08-21T08:37:27;4.77;;;1.30;;
3207;SDS011;1616;52.394;9.756;2023-08-21T08:39:52;2.27;;;1.10;;
3207;SDS011;1616;52.394;9.756;2023-08-21T08:42:18;2.23;;;1.20;;
3207;SDS011;1616;52.394;9.756;2023-08-21T08:44:44;4.73;;;1.50;;
3207;SDS011;1616;52.394;9.756;2023-08-21T08:47:10;2.37;;;1.30;;
3207;SDS011;1616;52.394;9.756;2023-08-21T08:49:39;2.73;;;0.93;;
3207;SDS011;1616;52.394;9.756;2023-08-21T08:52:05;2.40;;;1.20;;
3207;SDS011;1616;52.394;9.756;2023-08-21T08:54:32;2.87;;;1.20;;
3207;SDS011;1616;52.394;9.756;2023-08-21T08:56:58;2.73;;;1.23;;
3207;SDS011;1616;52.394;9.756;2023-08-21T08:59:24;1.90;;;1.17;;
3207;SDS011;1616;52.394;9.756;2023-08-21T09:01:50;2.43;;;1.13;;
3207;SDS011;1616;52.394;9.756;2023-08-21T09:04:16;1.67;;;0.90;;
3207;SDS011;1616;52.394;9.756;2023-08-21T09:06:42;2.38;;;0.90;;
3207;SDS011;1616;52.394;9.756;2023-08-21T09:09:07;2.50;;;1.10;;
3207;SDS011;1616;52.394;9.756;2023-08-21T09:11:35;1.77;;;1.10;;
3207;SDS011;1616;52.394;9.756;2023-08-21T09:14:07;2.00;;;0.90;;
3207;SDS011;1616;52.394;9.756;2023-08-21T09:16:32;1.77;;;1.10;;
3207;SDS011;1616;52.394;9.756;2023-08-21T09:18:58;4.07;;;1.00;;
3207;SDS011;1616;52.394;9.756;2023-08-21T09:21:25;2.10;;;1.07;;
3207;SDS011;1616;52.394;9.756;2023-08-21T09:23:59;1.40;;;1.00;;
3207;SDS011;1616;52.394;9.756;2023-08-21T09:26:26;2.70;;;0.90;;
3207;SDS011;1616;52.394;9.756;2023-08-21T09:28:52;1.75;;;1.10;;
3207;SDS011;1616;52.394;9.756;2023-08-21T09:31:22;4.72;;;0.90;;
3207;SDS011;1616;52.394;9.756;2023-08-21T09:33:58;1.65;;;1.02;;
3207;SDS011;1616;52.394;9.756;2023-08-21T09:36:26;1.63;;;1.00;;
3207;SDS011;1616;52.394;9.756;2023-08-21T09:38:52;1.17;;;0.88;;
3207;SDS011;1616;52.394;9.756;2023-08-21T09:41:19;1.48;;;0.82;;
3207;SDS011;1616;52.394;9.756;2023-08-21T09:43:46;4.80;;;0.82;;
3207;SDS011;1616;52.394;9.756;2023-08-21T09:46:15;1.20;;;0.90;;
3207;SDS011;1616;52.394;9.756;2023-08-21T09:48:43;3.70;;;1.00;;
3207;SDS011;1616;52.394;9.756;2023-08-21T09:51:11;2.15;;;1.00;;
3207;SDS011;1616;52.394;9.756;2023-08-21T09:53:37;2.85;;;1.23;;
3207;SDS011;1616;52.394;9.756;2023-08-21T09:56:04;1.40;;;1.00;;
3207;SDS011;1616;52.394;9.756;2023-08-21T09:58:31;3.90;;;0.87;;
3207;SDS011;1616;52.394;9.756;2023-08-21T10:00:57;1.73;;;1.40;;
3207;SDS011;1616;52.394;9.756;2023-08-21T10:03:24;4.40;;;2.07;;
3207;SDS011;1616;52.394;9.756;2023-08-21T10:05:50;3.47;;;1.33;;
3207;SDS011;1616;52.394;9.756;2023-08-21T10:08:21;2.73;;;2.13;;
3207;SDS011;1616;52.394;9.756;2023-08-21T10:10:50;1.40;;;0.80;;
3207;SDS011;1616;52.394;9.756;2023-08-21T10:13:15;4.53;;;1.00;;
3207;SDS011;1616;52.394;9.756;2023-08-21T10:15:42;1.23;;;0.80;;
3207;SDS011;1616;52.394;9.756;2023-08-21T10:18:22;4.00;;;1.00;;
3207;SDS011;1616;52.394;9.756;2023-08-21T10:20:55;1.57;;;1.00;;
3207;SDS011;1616;52.394;9.756;2023-08-21T10:23:25;2.77;;;1.00;;
3207;SDS011;1616;52.394;9.756;2023-08-21T10:25:58;1.57;;;0.90;;
3207;SDS011;1616;52.394;9.756;2023-08-21T10:28:40;1.80;;;0.90;;
3207;SDS011;1616;52.394;9.756;2023-08-21T10:33:55;3.33;;;0.90;;
3207;SDS011;1616;52.394;9.756;2023-08-21T10:39:16;1.10;;;0.70;;
3207;SDS011;1616;52.394;9.756;2023-08-21T10:42:01;1.10;;;0.80;;
3207;SDS011;1616;52.394;9.756;2023-08-21T10:49:56;1.17;;;0.70;;
3207;SDS011;1616;52.394;9.756;2023-08-21T10:52:23;2.30;;;0.80;;
3207;SDS011;1616;52.394;9.756;2023-08-21T10:54:56;1.67;;;0.80;;
3207;SDS011;1616;52.394;9.756;2023-08-21T10:57:24;1.27;;;0.70;;
3207;SDS011;1616;52.394;9.756;2023-08-21T11:02:24;2.37;;;0.90;;
3207;SDS011;1616;52.394;9.756;2023-08-21T11:04:54;2.50;;;0.80;;
3207;SDS011;1616;52.394;9.756;2023-08-21T11:07:20;2.17;;;1.00;;
3207;SDS011;1616;52.394;9.756;2023-08-21T11:09:47;4.60;;;0.97;;
3207;SDS011;1616;52.394;9.756;2023-08-21T11:12:17;5.57;;;0.90;;
3207;SDS011;1616;52.394;9.756;2023-08-21T11:14:45;2.50;;;1.10;;
3207;SDS011;1616;52.394;9.756;2023-08-21T11:17:11;3.00;;;0.93;;
3207;SDS011;1616;52.394;9.756;2023-08-21T11:19:38;1.50;;;1.00;;
3207;SDS011;1616;52.394;9.756;2023-08-21T11:22:04;4.47;;;0.85;;
3207;SDS011;1616;52.394;9.756;2023-08-21T11:27:06;2.50;;;0.90;;
3207;SDS011;1616;52.394;9.756;2023-08-21T11:29:39;3.15;;;0.80;;
3207;SDS011;1616;52.394;9.756;2023-08-21T11:32:23;1.38;;;0.90;;
3207;SDS011;1616;52.394;9.756;2023-08-21T11:34:50;1.50;;;0.85;;
3207;SDS011;1616;52.394;9.756;2023-08-21T11:37:17;3.05;;;0.90;;
3207;SDS011;1616;52.394;9.756;2023-08-21T11:39:48;2.45;;;1.00;;
3207;SDS011;1616;52.394;9.756;2023-08-21T11:42:15;1.30;;;1.00;;
3207;SDS011;1616;52.394;9.756;2023-08-21T11:44:47;1.30;;;0.80;;
3207;SDS011;1616;52.394;9.756;2023-08-21T11:47:16;2.73;;;1.10;;
3207;SDS011;1616;52.394;9.756;2023-08-21T11:49:44;1.73;;;0.90;;
3207;SDS011;1616;52.394;9.756;2023-08-21T11:52:12;4.07;;;0.80;;
3207;SDS011;1616;52.394;9.756;2023-08-21T11:54:39;3.20;;;1.00;;
3207;SDS011;1616;52.394;9.756;2023-08-21T11:57:07;2.10;;;1.00;;
3207;SDS011;1616;52.394;9.756;2023-08-21T11:59:35;4.50;;;0.87;;
3207;SDS011;1616;52.394;9.756;2023-08-21T12:02:01;2.23;;;0.90;;
3207;SDS011;1616;52.394;9.756;2023-08-21T12:04:33;2.50;;;1.30;;
3207;SDS011;1616;52.394;9.756;2023-08-21T12:07:00;1.37;;;0.87;;
3207;SDS011;1616;52.394;9.756;2023-08-21T12:09:26;4.40;;;0.90;;
3207;SDS011;1616;52.394;9.756;2023-08-21T12:11:52;3.35;;;0.90;;
3207;SDS011;1616;52.394;9.756;2023-08-21T12:14:18;1.50;;;0.90;;
3207;SDS011;1616;52.394;9.756;2023-08-21T12:16:44;2.15;;;0.70;;
3207;SDS011;1616;52.394;9.756;2023-08-21T12:19:09;1.58;;;0.80;;
3207;SDS011;1616;52.394;9.756;2023-08-21T12:21:37;1.37;;;0.90;;
3207;SDS011;1616;52.394;9.756;2023-08-21T12:24:04;2.13;;;0.83;;
3207;SDS011;1616;52.394;9.756;2023-08-21T12:26:30;2.35;;;0.90;;
3207;SDS011;1616;52.394;9.756;2023-08-21T12:28:56;4.65;;;0.80;;
3207;SDS011;1616;52.394;9.756;2023-08-21T12:31:22;1.60;;;0.70;;
3207;SDS011;1616;52.394;9.756;2023-08-21T12:33:48;2.25;;;0.90;;
3207;SDS011;1616;52.394;9.756;2023-08-21T12:36:13;1.90;;;1.00;;
3207;SDS011;1616;52.394;9.756;2023-08-21T12:38:39;2.03;;;0.90;;
3207;SDS011;1616;52.394;9.756;2023-08-21T12:41:05;1.30;;;0.70;;
3207;SDS011;1616;52.394;9.756;2023-08-21T12:43:30;1.50;;;0.75;;
3207;SDS011;1616;52.394;9.756;2023-08-21T12:45:57;1.27;;;0.80;;
3207;SDS011;1616;52.394;9.756;2023-08-21T12:48:23;1.90;;;0.87;;
3207;SDS011;1616;52.394;9.756;2023-08-21T12:50:49;1.10;;;0.80;;
3207;SDS011;1616;52.394;9.756;2023-08-21T12:53:15;2.93;;;1.00;;
3207;SDS011;1616;52.394;9.756;2023-08-21T12:55:41;5.37;;;0.90;;
3207;SDS011;1616;52.394;9.756;2023-08-21T12:58:07;1.30;;;0.80;;
3207;SDS011;1616;52.394;9.756;2023-08-21T13:00:34;3.27;;;0.93;;
3207;SDS011;1616;52.394;9.756;2023-08-21T13:03:00;4.40;;;0.80;;
3207;SDS011;1616;52.394;9.756;2023-08-21T13:05:25;3.90;;;1.10;;
3207;SDS011;1616;52.394;9.756;2023-08-21T13:07:51;2.03;;;1.07;;
3207;SDS011;1616;52.394;9.756;2023-08-21T13:10:17;2.38;;;1.00;;
3207;SDS011;1616;52.394;9.756;2023-08-21T13:12:44;1.88;;;0.90;;
3207;SDS011;1616;52.394;9.756;2023-08-21T13:15:10;1.98;;;0.90;;
3207;SDS011;1616;52.394;9.756;2023-08-21T13:17:36;1.77;;;0.80;;
3207;SDS011;1616;52.394;9.756;2023-08-21T13:20:02;3.53;;;0.80;;
3207;SDS011;1616;52.394;9.756;2023-08-21T13:22:28;1.33;;;0.70;;
3207;SDS011;1616;52.394;9.756;2023-08-21T13:25:08;2.33;;;0.80;;
3207;SDS011;1616;52.394;9.756;2023-08-21T13:27:34;1.20;;;0.80;;
3207;SDS011;1616;52.394;9.756;2023-08-21T13:29:59;1.30;;;0.90;;
3207;SDS011;1616;52.394;9.756;2023-08-21T13:32:25;1.53;;;0.97;;
3207;SDS011;1616;52.394;9.756;2023-08-21T13:34:51;1.53;;;0.90;;
3207;SDS011;1616;52.394;9.756;2023-08-21T13:37:17;2.50;;;0.83;;
3207;SDS011;1616;52.394;9.756;2023-08-21T13:39:42;1.00;;;0.80;;
3207;SDS011;1616;52.394;9.756;2023-08-21T13:42:08;2.57;;;0.70;;
3207;SDS011;1616;52.394;9.756;2023-08-21T13:44:33;1.30;;;0.87;;
3207;SDS011;1616;52.394;9.756;2023-08-21T13:46:59;1.90;;;0.80;;
3207;SDS011;1616;52.394;9.756;2023-08-21T13:49:25;1.30;;;0.73;;
3207;SDS011;1616;52.394;9.756;2023-08-21T13:51:50;1.23;;;0.80;;
3207;SDS011;1616;52.394;9.756;2023-08-21T13:54:16;1.40;;;0.83;;
3207;SDS011;1616;52.394;9.756;2023-08-21T13:56:41;2.70;;;0.73;;
3207;SDS011;1616;52.394;9.756;2023-08-21T13:59:07;1.30;;;0.70;;
3207;SDS011;1616;52.394;9.756;2023-08-21T14:01:33;1.13;;;0.83;;
3207;SDS011;1616;52.394;9.756;2023-08-21T14:03:58;1.50;;;0.90;;
3207;SDS011;1616;52.394;9.756;2023-08-21T14:06:24;1.90;;;0.90;;
3207;SDS011;1616;52.394;9.756;2023-08-21T14:08:49;1.83;;;0.80;;
3207;SDS011;1616;52.394;9.756;2023-08-21T14:11:15;1.53;;;0.90;;
3207;SDS011;1616;52.394;9.756;2023-08-21T14:13:41;1.57;;;0.80;;
3207;SDS011;1616;52.394;9.756;2023-08-21T14:16:06;1.40;;;0.70;;
3207;SDS011;1616;52.394;9.756;2023-08-21T14:18:32;1.73;;;1.20;;
3207;SDS011;1616;52.394;9.756;2023-08-21T14:20:58;3.87;;;0.90;;
3207;SDS011;1616;52.394;9.756;2023-08-21T14:23:24;2.90;;;0.73;;
3207;SDS011;1616;52.394;9.756;2023-08-21T14:25:49;5.53;;;0.70;;
3207;SDS011;1616;52.394;9.756;2023-08-21T14:28:16;1.20;;;0.70;;
3207;SDS011;1616;52.394;9.756;2023-08-21T14:30:42;1.40;;;0.80;;
3207;SDS011;1616;52.394;9.756;2023-08-21T14:33:08;1.20;;;0.70;;
3207;SDS011;1616;52.394;9.756;2023-08-21T14:35:33;1.33;;;0.73;;
3207;SDS011;1616;52.394;9.756;2023-08-21T14:37:59;0.90;;;0.60;;
3207;SDS011;1616;52.394;9.756;2023-08-21T14:40:25;1.50;;;0.80;;
3207;SDS011;1616;52.394;9.756;2023-08-21T14:42:50;2.33;;;0.80;;
3207;SDS011;1616;52.394;9.756;2023-08-21T14:45:16;1.10;;;0.80;;
3207;SDS011;1616;52.394;9.756;2023-08-21T14:47:42;1.20;;;0.80;;
3207;SDS011;1616;52.394;9.756;2023-08-21T14:50:08;4.70;;;1.10;;
3207;SDS011;1616;52.394;9.756;2023-08-21T14:52:35;2.50;;;0.90;;
3207;SDS011;1616;52.394;9.756;2023-08-21T14:55:01;1.03;;;0.70;;
3207;SDS011;1616;52.394;9.756;2023-08-21T14:57:27;1.37;;;0.80;;
3207;SDS011;1616;52.394;9.756;2023-08-21T14:59:53;1.13;;;0.67;;
3207;SDS011;1616;52.394;9.756;2023-08-21T15:02:20;1.23;;;0.70;;
3207;SDS011;1616;52.394;9.756;2023-08-21T15:04:46;1.70;;;0.73;;
3207;SDS011;1616;52.394;9.756;2023-08-21T15:07:11;2.60;;;1.00;;
3207;SDS011;1616;52.394;9.756;2023-08-21T15:09:37;1.60;;;1.17;;
3207;SDS011;1616;52.394;9.756;2023-08-21T15:12:04;3.50;;;0.90;;
3207;SDS011;1616;52.394;9.756;2023-08-21T15:14:30;1.40;;;0.80;;
3207;SDS011;1616;52.394;9.756;2023-08-21T15:16:56;1.60;;;0.70;;
3207;SDS011;1616;52.394;9.756;2023-08-21T15:19:21;1.73;;;0.70;;
3207;SDS011;1616;52.394;9.756;2023-08-21T15:21:47;1.40;;;0.90;;
3207;SDS011;1616;52.394;9.756;2023-08-21T15:24:13;1.23;;;0.80;;
3207;SDS011;1616;52.394;9.756;2023-08-21T15:26:38;1.30;;;0.70;;
3207;SDS011;1616;52.394;9.756;2023-08-21T15:29:04;1.20;;;0.70;;
3207;SDS011;1616;52.394;9.756;2023-08-21T15:31:29;1.10;;;0.70;;
3207;SDS011;1616;52.394;9.756;2023-08-21T15:33:55;4.00;;;0.70;;